Alleghany, CA

5:15 AM PDT on October 01, 2014 (GMT -0700)
RAWS RICE CANYON CA US | Change Station
CLOSE
Current Station
Personal Weather Station
Location: Sierraville, CA
Elevation: 6936 ft
Nearby Weather Stations

Elev 6936 ft 39.53 °N, 120.33 °W | Updated 45 minutes ago

Clear
Clear
37 °F
Feels Like 34 °F
N
4
Wind Variable Wind from SE
Gusts 7.0 mph

Today
High -- | Low -- °F
--% Chance of Precip.
Yesterday
High -- | Low -- °F
Precip. -- in
6:58 AM 6:44 PM
Waxing Crescent, 47% visible
Pressure 29.88 in
Visibility 10.0 miles
Clouds Clear
Windchill 34 °F
Dew Point 25 °F
Humidity 62%
Rainfall 0.00 in
Snow Depth 0 in , 0 in , 0 in
UV 0 out of 12
Pollen 5.00 out of 12
Ozone Good
Flu Activity Not available.
METAR KBLU 011152Z AUTO 07010G22KT 030V100 10SM CLR 09/M03 A3004 RMK AO2 SLP117 T00941033 10122 20094 58001 $

More Conditions Fewer Conditions

Pressure 29.88 in
Visibility 10.0 miles
Clouds Clear
Windchill 34 °F
Dew Point 25 °F
Humidity 62%
Rainfall 0.00 in
Snow Depth 0 in , 0 in , 0 in
UV 0 out of 12
Pollen 5.00 out of 12
Ozone Good
Flu Activity Not available.
METAR KBLU 011152Z AUTO 07010G22KT 030V100 10SM CLR 09/M03 A3004 RMK AO2 SLP117 T00941033 10122 20094 58001 $

More Conditions Fewer Conditions

10-Day Weather Forecast

Almanac

Astronomy

Oct. 01, 2014 Rise Set
Actual Time 6:58 AM PDT 6:44 PM PDT
Civil Twilight 6:32 AM PDT 7:11 PM PDT
Nautical Twilight 6:00 AM PDT 7:42 PM PDT
Astronomical Twilight 5:29 AM PDT 8:14 PM PDT
Moon 2:03 PM PDT No Moon Set
Length of Visible Light 12h 39m
Length of Day
11h 46m
Tomorrow will be 2m 34s shorter.
Waxing Crescent, 47% of the Moon is Illuminated
Today
Waxing Crescent
Oct 1
First Quarter
Oct 8
Full
Oct 15
Last Quarter
Oct 23
New

Today's Extremes

State Highs State Lows

Community

WunderPhotos

Upload Photos

1,757,914 photos uploaded!

WunderBlogs® & News

Nearby

Air Quality

  Air Quality AQ Index Pollutant
Yesterday Good
PM2.5
Current Good
OZONE
Wednesday Moderate
OZONE
Thursday Moderate
OZONE
Friday Moderate
OZONE
Saturday Moderate
OZONE

Snow Depth

Station Depth Elevation
Poison Flat 0 in 7900 ft
Tahoe City Cross 0 in 6750 ft
Fallen Leaf 0 in 6300 ft
Summit Meadow 1 in 9122 ft
Spratt Creek 1 in 6200 ft

Earthquake Activity

City Distance Mag. Time & Date
American Canyon, California 128 miles 2.5 12:17 AM PDT
2014-09-29
Minimum magnitude displayed is 2.5.

Coastal Water Temperatures

Place Temperature
No Stations Reporting

Nearby Weather Stations